sensor_id;sensor_type;location;lat;lon;timestamp;P1;durP1;ratioP1;P2;durP2;ratioP2
2652;SDS011;1336;48.692;9.144;2024-01-10T06:00:06;25.80;;;21.00;;
2652;SDS011;1336;48.692;9.144;2024-01-10T06:00:59;22.08;;;19.60;;
2652;SDS011;1336;48.692;9.144;2024-01-10T06:01:50;23.80;;;21.20;;
2652;SDS011;1336;48.692;9.144;2024-01-10T06:02:42;25.40;;;21.77;;
2652;SDS011;1336;48.692;9.144;2024-01-10T06:03:33;22.92;;;20.63;;
2652;SDS011;1336;48.692;9.144;2024-01-10T06:04:25;23.02;;;20.60;;
2652;SDS011;1336;48.692;9.144;2024-01-10T06:05:18;25.48;;;21.40;;
2652;SDS011;1336;48.692;9.144;2024-01-10T06:06:09;26.63;;;22.38;;
2652;SDS011;1336;48.692;9.144;2024-01-10T06:07:00;24.75;;;22.08;;
2652;SDS011;1336;48.692;9.144;2024-01-10T06:07:54;23.02;;;20.63;;
2652;SDS011;1336;48.692;9.144;2024-01-10T06:08:45;23.60;;;21.20;;
2652;SDS011;1336;48.692;9.144;2024-01-10T06:09:36;24.60;;;21.50;;
2652;SDS011;1336;48.692;9.144;2024-01-10T06:10:28;26.55;;;21.90;;
2652;SDS011;1336;48.692;9.144;2024-01-10T06:11:19;23.05;;;20.65;;
2652;SDS011;1336;48.692;9.144;2024-01-10T06:12:10;24.10;;;21.60;;
2652;SDS011;1336;48.692;9.144;2024-01-10T06:13:03;25.17;;;21.98;;
2652;SDS011;1336;48.692;9.144;2024-01-10T06:13:54;27.35;;;21.73;;
2652;SDS011;1336;48.692;9.144;2024-01-10T06:14:47;25.40;;;22.65;;
2652;SDS011;1336;48.692;9.144;2024-01-10T06:15:41;25.67;;;21.67;;
2652;SDS011;1336;48.692;9.144;2024-01-10T06:16:32;24.40;;;21.00;;
2652;SDS011;1336;48.692;9.144;2024-01-10T06:17:23;23.92;;;21.40;;
2652;SDS011;1336;48.692;9.144;2024-01-10T06:18:16;26.10;;;21.30;;
2652;SDS011;1336;48.692;9.144;2024-01-10T06:19:07;22.80;;;20.50;;
2652;SDS011;1336;48.692;9.144;2024-01-10T06:20:00;24.33;;;21.55;;
2652;SDS011;1336;48.692;9.144;2024-01-10T06:20:53;24.30;;;21.73;;
2652;SDS011;1336;48.692;9.144;2024-01-10T06:21:44;24.65;;;22.02;;
2652;SDS011;1336;48.692;9.144;2024-01-10T06:22:36;23.98;;;21.55;;
2652;SDS011;1336;48.692;9.144;2024-01-10T06:23:28;28.08;;;23.25;;
2652;SDS011;1336;48.692;9.144;2024-01-10T06:24:19;28.23;;;23.73;;
2652;SDS011;1336;48.692;9.144;2024-01-10T06:25:11;26.67;;;23.95;;
2652;SDS011;1336;48.692;9.144;2024-01-10T06:26:02;26.15;;;23.40;;
2652;SDS011;1336;48.692;9.144;2024-01-10T06:26:53;28.27;;;25.38;;
2652;SDS011;1336;48.692;9.144;2024-01-10T06:27:45;28.95;;;25.92;;
2652;SDS011;1336;48.692;9.144;2024-01-10T06:28:36;27.63;;;24.63;;
2652;SDS011;1336;48.692;9.144;2024-01-10T06:29:29;33.33;;;25.90;;
2652;SDS011;1336;48.692;9.144;2024-01-10T06:30:20;27.23;;;24.27;;
2652;SDS011;1336;48.692;9.144;2024-01-10T06:31:12;27.20;;;24.10;;
2652;SDS011;1336;48.692;9.144;2024-01-10T06:32:04;24.77;;;22.27;;
2652;SDS011;1336;48.692;9.144;2024-01-10T06:32:56;26.67;;;23.88;;
2652;SDS011;1336;48.692;9.144;2024-01-10T06:33:48;27.52;;;24.17;;
2652;SDS011;1336;48.692;9.144;2024-01-10T06:34:39;27.40;;;24.50;;
2652;SDS011;1336;48.692;9.144;2024-01-10T06:35:30;27.45;;;24.55;;
2652;SDS011;1336;48.692;9.144;2024-01-10T06:36:22;25.40;;;22.80;;
2652;SDS011;1336;48.692;9.144;2024-01-10T06:37:13;26.00;;;23.38;;
2652;SDS011;1336;48.692;9.144;2024-01-10T06:38:04;25.65;;;22.45;;
2652;SDS011;1336;48.692;9.144;2024-01-10T06:38:56;26.80;;;23.90;;
2652;SDS011;1336;48.692;9.144;2024-01-10T06:39:48;25.10;;;22.60;;
2652;SDS011;1336;48.692;9.144;2024-01-10T06:40:39;24.42;;;21.88;;
2652;SDS011;1336;48.692;9.144;2024-01-10T06:41:31;24.73;;;22.23;;
2652;SDS011;1336;48.692;9.144;2024-01-10T06:42:22;24.50;;;22.20;;
2652;SDS011;1336;48.692;9.144;2024-01-10T06:43:13;25.30;;;22.70;;
2652;SDS011;1336;48.692;9.144;2024-01-10T06:44:05;24.35;;;21.75;;
2652;SDS011;1336;48.692;9.144;2024-01-10T06:44:57;25.75;;;23.17;;
2652;SDS011;1336;48.692;9.144;2024-01-10T06:45:48;24.25;;;21.90;;
2652;SDS011;1336;48.692;9.144;2024-01-10T06:46:42;23.83;;;21.25;;
2652;SDS011;1336;48.692;9.144;2024-01-10T06:47:33;25.02;;;22.42;;
2652;SDS011;1336;48.692;9.144;2024-01-10T06:48:25;24.25;;;21.80;;
2652;SDS011;1336;48.692;9.144;2024-01-10T06:49:16;25.17;;;22.48;;
2652;SDS011;1336;48.692;9.144;2024-01-10T06:50:09;24.33;;;21.83;;
2652;SDS011;1336;48.692;9.144;2024-01-10T06:51:00;26.15;;;23.55;;
2652;SDS011;1336;48.692;9.144;2024-01-10T06:51:51;25.52;;;23.02;;
2652;SDS011;1336;48.692;9.144;2024-01-10T06:52:43;24.63;;;21.98;;
2652;SDS011;1336;48.692;9.144;2024-01-10T06:53:34;26.80;;;24.00;;
2652;SDS011;1336;48.692;9.144;2024-01-10T06:54:25;27.08;;;22.88;;
2652;SDS011;1336;48.692;9.144;2024-01-10T06:55:17;25.98;;;23.33;;
2652;SDS011;1336;48.692;9.144;2024-01-10T06:56:09;26.63;;;23.50;;
2652;SDS011;1336;48.692;9.144;2024-01-10T06:57:00;25.13;;;22.42;;
2652;SDS011;1336;48.692;9.144;2024-01-10T06:57:52;26.30;;;23.50;;
2652;SDS011;1336;48.692;9.144;2024-01-10T06:58:44;23.70;;;21.30;;
2652;SDS011;1336;48.692;9.144;2024-01-10T06:59:36;25.42;;;22.83;;
2652;SDS011;1336;48.692;9.144;2024-01-10T07:00:29;25.90;;;23.30;;
2652;SDS011;1336;48.692;9.144;2024-01-10T07:01:21;26.20;;;23.27;;
2652;SDS011;1336;48.692;9.144;2024-01-10T07:02:14;26.23;;;23.45;;
2652;SDS011;1336;48.692;9.144;2024-01-10T07:03:07;24.77;;;22.25;;
2652;SDS011;1336;48.692;9.144;2024-01-10T07:03:58;24.70;;;22.10;;
2652;SDS011;1336;48.692;9.144;2024-01-10T07:04:50;26.50;;;23.70;;
2652;SDS011;1336;48.692;9.144;2024-01-10T07:05:41;27.58;;;23.92;;
2652;SDS011;1336;48.692;9.144;2024-01-10T07:06:35;26.40;;;23.80;;
2652;SDS011;1336;48.692;9.144;2024-01-10T07:07:29;27.02;;;24.27;;
2652;SDS011;1336;48.692;9.144;2024-01-10T07:08:25;27.58;;;24.73;;
2652;SDS011;1336;48.692;9.144;2024-01-10T07:09:17;28.50;;;25.60;;
2652;SDS011;1336;48.692;9.144;2024-01-10T07:10:09;30.17;;;27.25;;
2652;SDS011;1336;48.692;9.144;2024-01-10T07:11:02;30.45;;;27.55;;
2652;SDS011;1336;48.692;9.144;2024-01-10T07:11:54;33.03;;;29.55;;
2652;SDS011;1336;48.692;9.144;2024-01-10T07:12:47;30.63;;;27.65;;
2652;SDS011;1336;48.692;9.144;2024-01-10T07:13:39;29.77;;;26.75;;
2652;SDS011;1336;48.692;9.144;2024-01-10T07:14:31;30.58;;;27.58;;
2652;SDS011;1336;48.692;9.144;2024-01-10T07:15:22;29.92;;;27.05;;
2652;SDS011;1336;48.692;9.144;2024-01-10T07:16:15;27.88;;;25.15;;
2652;SDS011;1336;48.692;9.144;2024-01-10T07:17:06;28.15;;;25.15;;
2652;SDS011;1336;48.692;9.144;2024-01-10T07:18:00;26.83;;;24.02;;
2652;SDS011;1336;48.692;9.144;2024-01-10T07:18:53;26.95;;;24.20;;
2652;SDS011;1336;48.692;9.144;2024-01-10T07:19:46;25.35;;;22.70;;
2652;SDS011;1336;48.692;9.144;2024-01-10T07:20:39;25.58;;;22.40;;
2652;SDS011;1336;48.692;9.144;2024-01-10T07:21:30;25.35;;;22.65;;
2652;SDS011;1336;48.692;9.144;2024-01-10T07:22:24;24.13;;;21.73;;
2652;SDS011;1336;48.692;9.144;2024-01-10T07:23:17;24.98;;;22.58;;
2652;SDS011;1336;48.692;9.144;2024-01-10T07:24:08;23.45;;;21.10;;
2652;SDS011;1336;48.692;9.144;2024-01-10T07:25:02;24.70;;;22.17;;
2652;SDS011;1336;48.692;9.144;2024-01-10T07:25:56;26.90;;;22.00;;
2652;SDS011;1336;48.692;9.144;2024-01-10T07:26:47;24.05;;;21.58;;
2652;SDS011;1336;48.692;9.144;2024-01-10T07:27:40;25.20;;;22.70;;
2652;SDS011;1336;48.692;9.144;2024-01-10T07:28:31;23.45;;;20.95;;
2652;SDS011;1336;48.692;9.144;2024-01-10T07:29:23;23.23;;;20.73;;
2652;SDS011;1336;48.692;9.144;2024-01-10T07:30:16;23.48;;;20.60;;
2652;SDS011;1336;48.692;9.144;2024-01-10T07:31:08;22.35;;;20.10;;
2652;SDS011;1336;48.692;9.144;2024-01-10T07:32:08;22.23;;;19.92;;
2652;SDS011;1336;48.692;9.144;2024-01-10T07:33:02;21.50;;;19.40;;
2652;SDS011;1336;48.692;9.144;2024-01-10T07:33:54;22.05;;;19.70;;
2652;SDS011;1336;48.692;9.144;2024-01-10T07:34:49;21.80;;;19.60;;
2652;SDS011;1336;48.692;9.144;2024-01-10T07:35:41;21.58;;;19.38;;
2652;SDS011;1336;48.692;9.144;2024-01-10T07:36:33;22.55;;;19.65;;
2652;SDS011;1336;48.692;9.144;2024-01-10T07:37:30;21.80;;;19.60;;
2652;SDS011;1336;48.692;9.144;2024-01-10T07:38:23;23.30;;;20.80;;
2652;SDS011;1336;48.692;9.144;2024-01-10T07:39:14;23.05;;;20.77;;
2652;SDS011;1336;48.692;9.144;2024-01-10T07:40:08;23.67;;;21.38;;
2652;SDS011;1336;48.692;9.144;2024-01-10T07:41:00;22.02;;;19.92;;
2652;SDS011;1336;48.692;9.144;2024-01-10T07:41:52;22.40;;;20.15;;
2652;SDS011;1336;48.692;9.144;2024-01-10T07:42:45;23.23;;;20.83;;
2652;SDS011;1336;48.692;9.144;2024-01-10T07:43:38;22.00;;;19.88;;
2652;SDS011;1336;48.692;9.144;2024-01-10T07:44:31;22.40;;;20.20;;
2652;SDS011;1336;48.692;9.144;2024-01-10T07:45:23;22.98;;;20.60;;
2652;SDS011;1336;48.692;9.144;2024-01-10T07:46:15;23.30;;;20.80;;
2652;SDS011;1336;48.692;9.144;2024-01-10T07:47:06;25.20;;;20.80;;
2652;SDS011;1336;48.692;9.144;2024-01-10T07:47:58;23.23;;;20.92;;
2652;SDS011;1336;48.692;9.144;2024-01-10T07:48:52;22.80;;;20.50;;
2652;SDS011;1336;48.692;9.144;2024-01-10T07:49:43;23.80;;;21.30;;
2652;SDS011;1336;48.692;9.144;2024-01-10T07:50:36;23.63;;;21.23;;
2652;SDS011;1336;48.692;9.144;2024-01-10T07:51:27;23.40;;;21.00;;
2652;SDS011;1336;48.692;9.144;2024-01-10T07:52:21;24.73;;;21.58;;
2652;SDS011;1336;48.692;9.144;2024-01-10T07:53:13;24.08;;;21.70;;
2652;SDS011;1336;48.692;9.144;2024-01-10T07:54:04;23.15;;;20.70;;
2652;SDS011;1336;48.692;9.144;2024-01-10T07:54:56;21.75;;;19.67;;
2652;SDS011;1336;48.692;9.144;2024-01-10T07:55:47;24.15;;;21.55;;
2652;SDS011;1336;48.692;9.144;2024-01-10T07:56:38;23.33;;;21.13;;
2652;SDS011;1336;48.692;9.144;2024-01-10T07:57:31;24.27;;;21.77;;
2652;SDS011;1336;48.692;9.144;2024-01-10T07:58:23;22.95;;;20.60;;
2652;SDS011;1336;48.692;9.144;2024-01-10T07:59:14;24.35;;;21.95;;
2652;SDS011;1336;48.692;9.144;2024-01-10T08:00:07;23.10;;;20.80;;
2652;SDS011;1336;48.692;9.144;2024-01-10T08:01:00;24.20;;;21.80;;
2652;SDS011;1336;48.692;9.144;2024-01-10T08:01:55;24.08;;;21.55;;
2652;SDS011;1336;48.692;9.144;2024-01-10T08:02:48;23.30;;;20.85;;
2652;SDS011;1336;48.692;9.144;2024-01-10T08:03:40;23.02;;;20.77;;
2652;SDS011;1336;48.692;9.144;2024-01-10T08:04:33;22.88;;;20.55;;
2652;SDS011;1336;48.692;9.144;2024-01-10T08:05:24;24.05;;;21.45;;
2652;SDS011;1336;48.692;9.144;2024-01-10T08:06:15;23.55;;;21.08;;
2652;SDS011;1336;48.692;9.144;2024-01-10T08:07:07;24.08;;;21.52;;
2652;SDS011;1336;48.692;9.144;2024-01-10T08:07:58;23.80;;;21.40;;
2652;SDS011;1336;48.692;9.144;2024-01-10T08:08:50;23.48;;;21.02;;
2652;SDS011;1336;48.692;9.144;2024-01-10T08:09:42;22.52;;;20.13;;
2652;SDS011;1336;48.692;9.144;2024-01-10T08:10:33;23.38;;;20.88;;
2652;SDS011;1336;48.692;9.144;2024-01-10T08:11:25;22.17;;;19.92;;
2652;SDS011;1336;48.692;9.144;2024-01-10T08:12:16;22.60;;;20.30;;
2652;SDS011;1336;48.692;9.144;2024-01-10T08:13:07;22.40;;;20.10;;
2652;SDS011;1336;48.692;9.144;2024-01-10T08:13:59;22.55;;;20.13;;
2652;SDS011;1336;48.692;9.144;2024-01-10T08:14:50;23.02;;;20.38;;
2652;SDS011;1336;48.692;9.144;2024-01-10T08:15:42;23.52;;;21.13;;
2652;SDS011;1336;48.692;9.144;2024-01-10T08:16:34;23.90;;;20.27;;
2652;SDS011;1336;48.692;9.144;2024-01-10T08:17:25;23.23;;;20.83;;
2652;SDS011;1336;48.692;9.144;2024-01-10T08:18:16;23.30;;;20.83;;
2652;SDS011;1336;48.692;9.144;2024-01-10T08:19:09;22.90;;;20.35;;
2652;SDS011;1336;48.692;9.144;2024-01-10T08:20:01;24.20;;;21.60;;
2652;SDS011;1336;48.692;9.144;2024-01-10T08:20:54;24.00;;;21.20;;
2652;SDS011;1336;48.692;9.144;2024-01-10T08:21:46;23.02;;;20.65;;
2652;SDS011;1336;48.692;9.144;2024-01-10T08:22:37;24.60;;;22.08;;
2652;SDS011;1336;48.692;9.144;2024-01-10T08:23:30;24.10;;;21.23;;
2652;SDS011;1336;48.692;9.144;2024-01-10T08:24:22;27.27;;;21.70;;
2652;SDS011;1336;48.692;9.144;2024-01-10T08:25:14;24.05;;;20.15;;
2652;SDS011;1336;48.692;9.144;2024-01-10T08:26:06;24.75;;;22.15;;
2652;SDS011;1336;48.692;9.144;2024-01-10T08:26:58;27.52;;;23.33;;
2652;SDS011;1336;48.692;9.144;2024-01-10T08:27:50;23.95;;;21.15;;
2652;SDS011;1336;48.692;9.144;2024-01-10T08:28:43;24.92;;;22.23;;
2652;SDS011;1336;48.692;9.144;2024-01-10T08:29:34;23.40;;;20.90;;
2652;SDS011;1336;48.692;9.144;2024-01-10T08:30:26;24.30;;;21.70;;
2652;SDS011;1336;48.692;9.144;2024-01-10T08:31:18;23.88;;;21.27;;
2652;SDS011;1336;48.692;9.144;2024-01-10T08:32:09;24.25;;;21.40;;
2652;SDS011;1336;48.692;9.144;2024-01-10T08:33:01;25.80;;;22.08;;
2652;SDS011;1336;48.692;9.144;2024-01-10T08:33:54;24.15;;;21.60;;
2652;SDS011;1336;48.692;9.144;2024-01-10T08:34:47;26.48;;;22.55;;
2652;SDS011;1336;48.692;9.144;2024-01-10T08:35:41;27.70;;;21.98;;
2652;SDS011;1336;48.692;9.144;2024-01-10T08:36:33;27.00;;;22.75;;
2652;SDS011;1336;48.692;9.144;2024-01-10T08:37:25;24.63;;;22.02;;
2652;SDS011;1336;48.692;9.144;2024-01-10T08:38:16;26.83;;;21.23;;
2652;SDS011;1336;48.692;9.144;2024-01-10T08:39:08;25.52;;;22.73;;
2652;SDS011;1336;48.692;9.144;2024-01-10T08:40:01;27.73;;;23.83;;
2652;SDS011;1336;48.692;9.144;2024-01-10T08:40:57;30.60;;;23.70;;
2652;SDS011;1336;48.692;9.144;2024-01-10T08:41:49;26.95;;;23.88;;
2652;SDS011;1336;48.692;9.144;2024-01-10T08:42:41;26.95;;;23.27;;
2652;SDS011;1336;48.692;9.144;2024-01-10T08:43:32;28.15;;;24.05;;
2652;SDS011;1336;48.692;9.144;2024-01-10T08:44:23;27.17;;;24.27;;
2652;SDS011;1336;48.692;9.144;2024-01-10T08:45:15;27.02;;;23.80;;
2652;SDS011;1336;48.692;9.144;2024-01-10T08:46:06;26.92;;;24.08;;
2652;SDS011;1336;48.692;9.144;2024-01-10T08:46:57;29.30;;;23.65;;
2652;SDS011;1336;48.692;9.144;2024-01-10T08:47:49;27.80;;;24.50;;
2652;SDS011;1336;48.692;9.144;2024-01-10T08:48:40;27.58;;;23.25;;
2652;SDS011;1336;48.692;9.144;2024-01-10T08:49:32;25.65;;;22.88;;
2652;SDS011;1336;48.692;9.144;2024-01-10T08:50:24;28.13;;;24.00;;
2652;SDS011;1336;48.692;9.144;2024-01-10T08:51:17;24.90;;;22.30;;
2652;SDS011;1336;48.692;9.144;2024-01-10T08:52:08;27.83;;;23.92;;
2652;SDS011;1336;48.692;9.144;2024-01-10T08:53:00;28.25;;;22.90;;
2652;SDS011;1336;48.692;9.144;2024-01-10T08:53:55;26.85;;;23.38;;
2652;SDS011;1336;48.692;9.144;2024-01-10T08:54:47;29.13;;;25.08;;
2652;SDS011;1336;48.692;9.144;2024-01-10T08:55:38;26.58;;;23.13;;
2652;SDS011;1336;48.692;9.144;2024-01-10T08:56:29;28.20;;;24.88;;
2652;SDS011;1336;48.692;9.144;2024-01-10T08:57:21;26.17;;;23.15;;
2652;SDS011;1336;48.692;9.144;2024-01-10T08:58:13;27.27;;;24.30;;
2652;SDS011;1336;48.692;9.144;2024-01-10T08:59:04;28.02;;;25.02;;
2652;SDS011;1336;48.692;9.144;2024-01-10T08:59:56;28.73;;;25.17;;
2652;SDS011;1336;48.692;9.144;2024-01-10T09:00:47;30.65;;;25.60;;
2652;SDS011;1336;48.692;9.144;2024-01-10T09:01:40;31.38;;;26.27;;
2652;SDS011;1336;48.692;9.144;2024-01-10T09:02:31;29.13;;;25.63;;
2652;SDS011;1336;48.692;9.144;2024-01-10T09:03:26;28.95;;;25.70;;
2652;SDS011;1336;48.692;9.144;2024-01-10T09:04:17;29.00;;;25.95;;
2652;SDS011;1336;48.692;9.144;2024-01-10T09:05:10;29.90;;;26.67;;
2652;SDS011;1336;48.692;9.144;2024-01-10T09:06:01;27.75;;;24.75;;
2652;SDS011;1336;48.692;9.144;2024-01-10T09:06:55;31.25;;;26.60;;
2652;SDS011;1336;48.692;9.144;2024-01-10T09:07:47;28.80;;;25.30;;
2652;SDS011;1336;48.692;9.144;2024-01-10T09:08:38;29.25;;;24.67;;
2652;SDS011;1336;48.692;9.144;2024-01-10T09:09:30;29.45;;;25.88;;
2652;SDS011;1336;48.692;9.144;2024-01-10T09:10:21;29.60;;;25.88;;
2652;SDS011;1336;48.692;9.144;2024-01-10T09:11:14;30.25;;;26.15;;
2652;SDS011;1336;48.692;9.144;2024-01-10T09:12:05;32.20;;;26.13;;
2652;SDS011;1336;48.692;9.144;2024-01-10T09:12:57;30.92;;;26.00;;
2652;SDS011;1336;48.692;9.144;2024-01-10T09:13:50;30.13;;;26.20;;
2652;SDS011;1336;48.692;9.144;2024-01-10T09:14:41;29.27;;;26.00;;
2652;SDS011;1336;48.692;9.144;2024-01-10T09:15:32;29.85;;;25.90;;
2652;SDS011;1336;48.692;9.144;2024-01-10T09:16:24;28.35;;;25.20;;
2652;SDS011;1336;48.692;9.144;2024-01-10T09:17:15;30.17;;;25.90;;
2652;SDS011;1336;48.692;9.144;2024-01-10T09:18:07;30.35;;;24.45;;
2652;SDS011;1336;48.692;9.144;2024-01-10T09:18:58;29.27;;;26.10;;
2652;SDS011;1336;48.692;9.144;2024-01-10T09:19:50;28.52;;;25.52;;
2652;SDS011;1336;48.692;9.144;2024-01-10T09:20:42;28.98;;;25.83;;
2652;SDS011;1336;48.692;9.144;2024-01-10T09:21:33;29.38;;;25.70;;
2652;SDS011;1336;48.692;9.144;2024-01-10T09:22:26;33.15;;;26.80;;
2652;SDS011;1336;48.692;9.144;2024-01-10T09:23:18;29.15;;;24.45;;
2652;SDS011;1336;48.692;9.144;2024-01-10T09:24:09;33.25;;;26.02;;
2652;SDS011;1336;48.692;9.144;2024-01-10T09:25:01;29.17;;;25.80;;
2652;SDS011;1336;48.692;9.144;2024-01-10T09:25:54;28.83;;;24.52;;
2652;SDS011;1336;48.692;9.144;2024-01-10T09:26:45;34.05;;;25.88;;
2652;SDS011;1336;48.692;9.144;2024-01-10T09:27:38;30.35;;;25.65;;
2652;SDS011;1336;48.692;9.144;2024-01-10T09:28:30;30.80;;;26.25;;
2652;SDS011;1336;48.692;9.144;2024-01-10T09:29:21;30.23;;;25.50;;
2652;SDS011;1336;48.692;9.144;2024-01-10T09:30:13;28.52;;;25.00;;
2652;SDS011;1336;48.692;9.144;2024-01-10T09:31:06;31.63;;;25.73;;
2652;SDS011;1336;48.692;9.144;2024-01-10T09:31:58;31.13;;;25.27;;
2652;SDS011;1336;48.692;9.144;2024-01-10T09:32:50;29.48;;;25.67;;
2652;SDS011;1336;48.692;9.144;2024-01-10T09:33:42;32.42;;;25.15;;
2652;SDS011;1336;48.692;9.144;2024-01-10T09:34:33;31.85;;;26.08;;
2652;SDS011;1336;48.692;9.144;2024-01-10T09:35:25;33.40;;;25.55;;
2652;SDS011;1336;48.692;9.144;2024-01-10T09:36:16;30.15;;;26.00;;
2652;SDS011;1336;48.692;9.144;2024-01-10T09:37:07;29.95;;;26.23;;
2652;SDS011;1336;48.692;9.144;2024-01-10T09:38:00;32.28;;;25.33;;
2652;SDS011;1336;48.692;9.144;2024-01-10T09:38:52;30.77;;;26.70;;
2652;SDS011;1336;48.692;9.144;2024-01-10T09:39:43;30.83;;;27.15;;
2652;SDS011;1336;48.692;9.144;2024-01-10T09:40:36;31.70;;;25.33;;
2652;SDS011;1336;48.692;9.144;2024-01-10T09:41:27;28.42;;;25.30;;
2652;SDS011;1336;48.692;9.144;2024-01-10T09:42:19;29.33;;;24.60;;
2652;SDS011;1336;48.692;9.144;2024-01-10T09:43:15;32.05;;;24.52;;
2652;SDS011;1336;48.692;9.144;2024-01-10T09:44:06;28.60;;;24.15;;
2652;SDS011;1336;48.692;9.144;2024-01-10T09:44:59;29.02;;;24.65;;
2652;SDS011;1336;48.692;9.144;2024-01-10T09:45:50;31.00;;;24.10;;
2652;SDS011;1336;48.692;9.144;2024-01-10T09:46:43;31.13;;;24.35;;
2652;SDS011;1336;48.692;9.144;2024-01-10T09:47:35;31.25;;;24.55;;
2652;SDS011;1336;48.692;9.144;2024-01-10T09:48:27;27.58;;;23.58;;
2652;SDS011;1336;48.692;9.144;2024-01-10T09:49:19;28.73;;;24.92;;
2652;SDS011;1336;48.692;9.144;2024-01-10T09:50:11;29.48;;;24.65;;
2652;SDS011;1336;48.692;9.144;2024-01-10T09:51:04;26.92;;;23.88;;
2652;SDS011;1336;48.692;9.144;2024-01-10T09:51:57;31.13;;;26.15;;
2652;SDS011;1336;48.692;9.144;2024-01-10T09:52:50;28.25;;;25.08;;
2652;SDS011;1336;48.692;9.144;2024-01-10T09:53:44;30.92;;;25.80;;
2652;SDS011;1336;48.692;9.144;2024-01-10T09:54:40;27.92;;;24.92;;
2652;SDS011;1336;48.692;9.144;2024-01-10T09:55:33;28.70;;;24.75;;
2652;SDS011;1336;48.692;9.144;2024-01-10T09:56:25;29.33;;;24.30;;
2652;SDS011;1336;48.692;9.144;2024-01-10T09:57:17;28.38;;;23.48;;
2652;SDS011;1336;48.692;9.144;2024-01-10T09:58:08;28.35;;;25.10;;
2652;SDS011;1336;48.692;9.144;2024-01-10T09:59:01;27.10;;;22.58;;
2652;SDS011;1336;48.692;9.144;2024-01-10T09:59:54;28.60;;;25.50;;
2652;SDS011;1336;48.692;9.144;2024-01-10T10:00:45;28.80;;;24.25;;
2652;SDS011;1336;48.692;9.144;2024-01-10T10:01:38;29.27;;;25.50;;
2652;SDS011;1336;48.692;9.144;2024-01-10T10:02:29;29.80;;;25.67;;
2652;SDS011;1336;48.692;9.144;2024-01-10T10:03:21;28.20;;;24.60;;
2652;SDS011;1336;48.692;9.144;2024-01-10T10:04:12;29.33;;;25.17;;
2652;SDS011;1336;48.692;9.144;2024-01-10T10:05:07;29.42;;;26.20;;
2652;SDS011;1336;48.692;9.144;2024-01-10T10:06:00;28.27;;;24.40;;
2652;SDS011;1336;48.692;9.144;2024-01-10T10:06:57;32.40;;;26.30;;
2652;SDS011;1336;48.692;9.144;2024-01-10T10:07:51;28.13;;;23.70;;
2652;SDS011;1336;48.692;9.144;2024-01-10T10:08:44;29.45;;;24.73;;
2652;SDS011;1336;48.692;9.144;2024-01-10T10:09:36;30.77;;;27.00;;
2652;SDS011;1336;48.692;9.144;2024-01-10T10:10:27;28.50;;;24.20;;
2652;SDS011;1336;48.692;9.144;2024-01-10T10:11:18;27.77;;;24.27;;
2652;SDS011;1336;48.692;9.144;2024-01-10T10:12:11;28.13;;;23.65;;
2652;SDS011;1336;48.692;9.144;2024-01-10T10:13:02;27.30;;;24.33;;
2652;SDS011;1336;48.692;9.144;2024-01-10T10:13:53;28.52;;;24.65;;
2652;SDS011;1336;48.692;9.144;2024-01-10T10:14:45;29.45;;;26.00;;
2652;SDS011;1336;48.692;9.144;2024-01-10T10:15:36;29.02;;;25.70;;
2652;SDS011;1336;48.692;9.144;2024-01-10T10:16:29;29.42;;;25.25;;
2652;SDS011;1336;48.692;9.144;2024-01-10T10:17:20;29.95;;;24.45;;
2652;SDS011;1336;48.692;9.144;2024-01-10T10:18:13;29.17;;;24.80;;
2652;SDS011;1336;48.692;9.144;2024-01-10T10:19:05;29.83;;;25.60;;
2652;SDS011;1336;48.692;9.144;2024-01-10T10:19:58;28.42;;;25.00;;
2652;SDS011;1336;48.692;9.144;2024-01-10T10:21:07;29.02;;;24.85;;
2652;SDS011;1336;48.692;9.144;2024-01-10T10:22:02;28.25;;;25.30;;
2652;SDS011;1336;48.692;9.144;2024-01-10T10:22:59;28.15;;;25.13;;
2652;SDS011;1336;48.692;9.144;2024-01-10T10:23:59;28.80;;;25.25;;
2652;SDS011;1336;48.692;9.144;2024-01-10T10:24:50;30.05;;;25.17;;
2652;SDS011;1336;48.692;9.144;2024-01-10T10:25:43;30.60;;;25.73;;
2652;SDS011;1336;48.692;9.144;2024-01-10T10:26:35;29.63;;;24.67;;
2652;SDS011;1336;48.692;9.144;2024-01-10T10:27:27;27.25;;;24.17;;
2652;SDS011;1336;48.692;9.144;2024-01-10T10:28:19;29.48;;;26.27;;
2652;SDS011;1336;48.692;9.144;2024-01-10T10:29:10;29.20;;;26.02;;
2652;SDS011;1336;48.692;9.144;2024-01-10T10:30:02;30.08;;;25.80;;
2652;SDS011;1336;48.692;9.144;2024-01-10T10:30:53;29.77;;;25.63;;
2652;SDS011;1336;48.692;9.144;2024-01-10T10:31:47;29.58;;;25.80;;
2652;SDS011;1336;48.692;9.144;2024-01-10T10:32:39;27.63;;;24.50;;
2652;SDS011;1336;48.692;9.144;2024-01-10T10:33:32;30.00;;;24.98;;
2652;SDS011;1336;48.692;9.144;2024-01-10T10:34:23;31.08;;;26.25;;
2652;SDS011;1336;48.692;9.144;2024-01-10T10:35:15;27.83;;;25.00;;
2652;SDS011;1336;48.692;9.144;2024-01-10T10:36:06;28.33;;;25.30;;
2652;SDS011;1336;48.692;9.144;2024-01-10T10:36:58;29.02;;;25.52;;
2652;SDS011;1336;48.692;9.144;2024-01-10T10:37:50;33.03;;;25.63;;
2652;SDS011;1336;48.692;9.144;2024-01-10T10:38:42;28.40;;;25.17;;
2652;SDS011;1336;48.692;9.144;2024-01-10T10:39:34;27.83;;;24.83;;
2652;SDS011;1336;48.692;9.144;2024-01-10T10:40:27;29.05;;;25.65;;
2652;SDS011;1336;48.692;9.144;2024-01-10T10:41:19;35.50;;;27.00;;
2652;SDS011;1336;48.692;9.144;2024-01-10T10:42:11;30.70;;;26.50;;
2652;SDS011;1336;48.692;9.144;2024-01-10T10:43:03;29.48;;;25.17;;
2652;SDS011;1336;48.692;9.144;2024-01-10T10:43:55;30.35;;;25.77;;
2652;SDS011;1336;48.692;9.144;2024-01-10T10:44:47;28.63;;;25.00;;
2652;SDS011;1336;48.692;9.144;2024-01-10T10:45:38;30.83;;;26.63;;
2652;SDS011;1336;48.692;9.144;2024-01-10T10:46:30;29.25;;;24.92;;
2652;SDS011;1336;48.692;9.144;2024-01-10T10:47:23;33.15;;;26.63;;
2652;SDS011;1336;48.692;9.144;2024-01-10T10:48:16;31.98;;;25.73;;
2652;SDS011;1336;48.692;9.144;2024-01-10T10:49:09;29.27;;;25.95;;
2652;SDS011;1336;48.692;9.144;2024-01-10T10:50:03;30.48;;;27.13;;
2652;SDS011;1336;48.692;9.144;2024-01-10T10:50:59;29.17;;;25.40;;
2652;SDS011;1336;48.692;9.144;2024-01-10T10:51:53;28.65;;;25.30;;
2652;SDS011;1336;48.692;9.144;2024-01-10T10:52:47;30.38;;;26.55;;
2652;SDS011;1336;48.692;9.144;2024-01-10T10:53:39;31.25;;;26.08;;
2652;SDS011;1336;48.692;9.144;2024-01-10T10:54:31;30.50;;;26.67;;
2652;SDS011;1336;48.692;9.144;2024-01-10T10:55:24;32.25;;;26.90;;
2652;SDS011;1336;48.692;9.144;2024-01-10T10:56:18;29.80;;;25.42;;
2652;SDS011;1336;48.692;9.144;2024-01-10T10:57:09;29.65;;;26.42;;
2652;SDS011;1336;48.692;9.144;2024-01-10T10:58:01;31.13;;;26.60;;
2652;SDS011;1336;48.692;9.144;2024-01-10T10:58:54;29.48;;;26.30;;
2652;SDS011;1336;48.692;9.144;2024-01-10T10:59:46;28.42;;;25.30;;
2652;SDS011;1336;48.692;9.144;2024-01-10T11:00:38;30.90;;;27.60;;
2652;SDS011;1336;48.692;9.144;2024-01-10T11:01:29;31.10;;;25.83;;
2652;SDS011;1336;48.692;9.144;2024-01-10T11:02:22;29.88;;;25.98;;
2652;SDS011;1336;48.692;9.144;2024-01-10T11:03:14;30.85;;;26.27;;
2652;SDS011;1336;48.692;9.144;2024-01-10T11:04:07;31.90;;;26.50;;
2652;SDS011;1336;48.692;9.144;2024-01-10T11:04:58;29.35;;;26.13;;
2652;SDS011;1336;48.692;9.144;2024-01-10T11:05:51;31.05;;;26.90;;
2652;SDS011;1336;48.692;9.144;2024-01-10T11:06:42;32.88;;;27.80;;
2652;SDS011;1336;48.692;9.144;2024-01-10T11:07:34;28.63;;;24.98;;
2652;SDS011;1336;48.692;9.144;2024-01-10T11:08:26;30.60;;;26.73;;
2652;SDS011;1336;48.692;9.144;2024-01-10T11:09:18;30.58;;;26.08;;
2652;SDS011;1336;48.692;9.144;2024-01-10T11:10:14;37.55;;;33.58;;
2652;SDS011;1336;48.692;9.144;2024-01-10T11:11:12;31.50;;;26.50;;
2652;SDS011;1336;48.692;9.144;2024-01-10T11:12:10;30.17;;;26.30;;
2652;SDS011;1336;48.692;9.144;2024-01-10T11:13:12;33.00;;;29.42;;
2652;SDS011;1336;48.692;9.144;2024-01-10T11:14:09;36.15;;;30.80;;
2652;SDS011;1336;48.692;9.144;2024-01-10T11:15:11;33.88;;;30.27;;